sensor_id;sensor_type;location;lat;lon;timestamp;P1;durP1;ratioP1;P2;durP2;ratioP2
44824;SDS011;30542;47.928;2.138;2024-03-23T00:58:33;1.08;;;0.50;;
44824;SDS011;30542;47.928;2.138;2024-03-23T01:03:34;2.55;;;0.50;;
44824;SDS011;30542;47.928;2.138;2024-03-23T01:08:35;2.75;;;1.00;;
44824;SDS011;30542;47.928;2.138;2024-03-23T01:13:35;3.33;;;0.90;;
44824;SDS011;30542;47.928;2.138;2024-03-23T01:18:35;1.10;;;0.50;;
44824;SDS011;30542;47.928;2.138;2024-03-23T01:23:36;1.33;;;0.70;;
44824;SDS011;30542;47.928;2.138;2024-03-23T01:28:36;0.80;;;0.50;;
44824;SDS011;30542;47.928;2.138;2024-03-23T01:33:36;2.03;;;0.63;;
44824;SDS011;30542;47.928;2.138;2024-03-23T01:38:37;3.50;;;0.70;;
44824;SDS011;30542;47.928;2.138;2024-03-23T01:43:37;1.23;;;0.50;;
44824;SDS011;30542;47.928;2.138;2024-03-23T01:48:37;2.00;;;0.90;;
44824;SDS011;30542;47.928;2.138;2024-03-23T01:53:38;3.43;;;1.10;;
44824;SDS011;30542;47.928;2.138;2024-03-23T01:58:38;2.70;;;0.60;;
44824;SDS011;30542;47.928;2.138;2024-03-23T02:03:38;2.37;;;0.93;;
44824;SDS011;30542;47.928;2.138;2024-03-23T02:08:39;1.95;;;0.57;;
44824;SDS011;30542;47.928;2.138;2024-03-23T02:13:40;1.45;;;0.80;;
44824;SDS011;30542;47.928;2.138;2024-03-23T02:18:40;1.60;;;0.50;;
44824;SDS011;30542;47.928;2.138;2024-03-23T02:23:40;2.07;;;0.60;;
44824;SDS011;30542;47.928;2.138;2024-03-23T02:28:40;3.25;;;0.85;;
44824;SDS011;30542;47.928;2.138;2024-03-23T02:33:41;2.22;;;0.82;;
44824;SDS011;30542;47.928;2.138;2024-03-23T02:38:41;2.67;;;0.70;;
44824;SDS011;30542;47.928;2.138;2024-03-23T02:43:41;2.93;;;0.80;;
44824;SDS011;30542;47.928;2.138;2024-03-23T02:48:42;1.80;;;0.60;;
44824;SDS011;30542;47.928;2.138;2024-03-23T02:53:42;2.00;;;0.90;;
44824;SDS011;30542;47.928;2.138;2024-03-23T02:58:42;1.20;;;0.60;;
44824;SDS011;30542;47.928;2.138;2024-03-23T03:03:43;3.33;;;0.82;;
44824;SDS011;30542;47.928;2.138;2024-03-23T03:08:44;2.15;;;0.90;;
44824;SDS011;30542;47.928;2.138;2024-03-23T03:13:44;1.60;;;0.67;;
44824;SDS011;30542;47.928;2.138;2024-03-23T03:18:45;1.67;;;0.60;;
44824;SDS011;30542;47.928;2.138;2024-03-23T03:23:46;1.98;;;0.60;;
44824;SDS011;30542;47.928;2.138;2024-03-23T03:28:50;2.55;;;0.80;;
44824;SDS011;30542;47.928;2.138;2024-03-23T03:33:51;1.63;;;0.60;;
44824;SDS011;30542;47.928;2.138;2024-03-23T03:38:51;1.70;;;0.50;;
44824;SDS011;30542;47.928;2.138;2024-03-23T03:43:51;2.45;;;0.55;;
44824;SDS011;30542;47.928;2.138;2024-03-23T03:48:52;1.70;;;0.85;;
44824;SDS011;30542;47.928;2.138;2024-03-23T03:53:52;2.28;;;0.60;;
44824;SDS011;30542;47.928;2.138;2024-03-23T03:58:52;1.73;;;0.50;;
44824;SDS011;30542;47.928;2.138;2024-03-23T04:03:53;3.77;;;0.83;;
44824;SDS011;30542;47.928;2.138;2024-03-23T04:08:54;1.52;;;0.60;;
44824;SDS011;30542;47.928;2.138;2024-03-23T04:13:55;2.63;;;0.77;;
44824;SDS011;30542;47.928;2.138;2024-03-23T04:18:55;2.47;;;0.80;;
44824;SDS011;30542;47.928;2.138;2024-03-23T04:23:55;3.30;;;0.50;;
44824;SDS011;30542;47.928;2.138;2024-03-23T04:28:56;1.60;;;0.53;;
44824;SDS011;30542;47.928;2.138;2024-03-23T04:33:56;2.40;;;0.70;;
44824;SDS011;30542;47.928;2.138;2024-03-23T04:38:57;2.45;;;0.90;;
44824;SDS011;30542;47.928;2.138;2024-03-23T04:43:58;2.25;;;0.77;;
44824;SDS011;30542;47.928;2.138;2024-03-23T04:48:59;2.53;;;0.85;;
44824;SDS011;30542;47.928;2.138;2024-03-23T04:53:59;1.85;;;0.60;;
44824;SDS011;30542;47.928;2.138;2024-03-23T04:58:59;1.95;;;0.70;;
44824;SDS011;30542;47.928;2.138;2024-03-23T05:04:01;1.00;;;0.50;;
44824;SDS011;30542;47.928;2.138;2024-03-23T05:09:02;3.53;;;0.50;;
44824;SDS011;30542;47.928;2.138;2024-03-23T05:14:12;1.23;;;0.50;;
44824;SDS011;30542;47.928;2.138;2024-03-23T05:19:13;1.67;;;0.50;;
44824;SDS011;30542;47.928;2.138;2024-03-23T05:24:13;2.43;;;0.67;;
44824;SDS011;30542;47.928;2.138;2024-03-23T05:29:14;4.37;;;0.67;;
44824;SDS011;30542;47.928;2.138;2024-03-23T05:34:17;2.78;;;1.10;;
44824;SDS011;30542;47.928;2.138;2024-03-23T05:39:18;2.42;;;0.65;;
44824;SDS011;30542;47.928;2.138;2024-03-23T05:44:18;2.37;;;0.60;;
44824;SDS011;30542;47.928;2.138;2024-03-23T05:49:18;2.43;;;0.67;;
44824;SDS011;30542;47.928;2.138;2024-03-23T05:54:19;2.90;;;0.50;;
44824;SDS011;30542;47.928;2.138;2024-03-23T05:59:19;3.03;;;0.95;;
44824;SDS011;30542;47.928;2.138;2024-03-23T06:04:19;2.03;;;0.50;;
44824;SDS011;30542;47.928;2.138;2024-03-23T06:09:21;2.47;;;0.52;;
44824;SDS011;30542;47.928;2.138;2024-03-23T06:14:21;2.15;;;0.55;;
44824;SDS011;30542;47.928;2.138;2024-03-23T06:19:22;2.80;;;0.40;;
44824;SDS011;30542;47.928;2.138;2024-03-23T06:24:22;2.95;;;0.90;;
44824;SDS011;30542;47.928;2.138;2024-03-23T06:29:22;3.35;;;0.85;;
44824;SDS011;30542;47.928;2.138;2024-03-23T06:34:23;1.45;;;0.50;;
44824;SDS011;30542;47.928;2.138;2024-03-23T06:39:24;1.75;;;0.45;;
44824;SDS011;30542;47.928;2.138;2024-03-23T06:44:24;2.15;;;0.40;;
44824;SDS011;30542;47.928;2.138;2024-03-23T06:49:24;2.25;;;0.63;;
44824;SDS011;30542;47.928;2.138;2024-03-23T06:54:25;2.83;;;0.80;;
44824;SDS011;30542;47.928;2.138;2024-03-23T06:59:26;2.22;;;0.93;;
44824;SDS011;30542;47.928;2.138;2024-03-23T07:04:26;3.27;;;0.80;;
44824;SDS011;30542;47.928;2.138;2024-03-23T07:09:27;4.35;;;0.85;;
44824;SDS011;30542;47.928;2.138;2024-03-23T07:14:28;1.88;;;0.55;;
44824;SDS011;30542;47.928;2.138;2024-03-23T07:19:29;1.98;;;0.73;;
44824;SDS011;30542;47.928;2.138;2024-03-23T07:24:29;2.83;;;0.75;;
44824;SDS011;30542;47.928;2.138;2024-03-23T07:29:31;3.00;;;0.50;;
44824;SDS011;30542;47.928;2.138;2024-03-23T07:34:31;5.93;;;0.70;;
44824;SDS011;30542;47.928;2.138;2024-03-23T07:39:31;3.67;;;0.60;;
44824;SDS011;30542;47.928;2.138;2024-03-23T07:44:34;3.15;;;0.65;;
44824;SDS011;30542;47.928;2.138;2024-03-23T07:49:34;4.10;;;0.80;;
44824;SDS011;30542;47.928;2.138;2024-03-23T07:54:34;2.20;;;0.60;;
44824;SDS011;30542;47.928;2.138;2024-03-23T07:59:35;4.20;;;0.90;;
44824;SDS011;30542;47.928;2.138;2024-03-23T08:04:35;2.83;;;0.70;;
44824;SDS011;30542;47.928;2.138;2024-03-23T08:09:35;4.03;;;0.90;;
44824;SDS011;30542;47.928;2.138;2024-03-23T08:14:35;2.90;;;0.70;;
44824;SDS011;30542;47.928;2.138;2024-03-23T08:19:36;2.45;;;0.50;;
44824;SDS011;30542;47.928;2.138;2024-03-23T08:24:36;2.73;;;0.57;;
44824;SDS011;30542;47.928;2.138;2024-03-23T08:29:36;3.75;;;0.68;;
44824;SDS011;30542;47.928;2.138;2024-03-23T08:34:37;3.25;;;0.70;;
44824;SDS011;30542;47.928;2.138;2024-03-23T08:39:37;3.40;;;0.68;;
44824;SDS011;30542;47.928;2.138;2024-03-23T08:44:37;2.85;;;0.70;;
44824;SDS011;30542;47.928;2.138;2024-03-23T08:49:37;2.77;;;0.70;;
44824;SDS011;30542;47.928;2.138;2024-03-23T08:54:38;6.63;;;1.30;;
44824;SDS011;30542;47.928;2.138;2024-03-23T08:59:38;7.37;;;1.13;;
44824;SDS011;30542;47.928;2.138;2024-03-23T09:04:38;8.37;;;1.00;;
44824;SDS011;30542;47.928;2.138;2024-03-23T09:09:39;9.30;;;1.37;;
44824;SDS011;30542;47.928;2.138;2024-03-23T09:14:40;7.15;;;0.90;;
44824;SDS011;30542;47.928;2.138;2024-03-23T09:19:40;9.20;;;1.42;;
44824;SDS011;30542;47.928;2.138;2024-03-23T09:24:40;7.57;;;1.50;;
44824;SDS011;30542;47.928;2.138;2024-03-23T09:29:41;8.67;;;1.63;;
44824;SDS011;30542;47.928;2.138;2024-03-23T09:34:41;9.70;;;1.95;;
44824;SDS011;30542;47.928;2.138;2024-03-23T09:39:41;7.47;;;1.17;;
44824;SDS011;30542;47.928;2.138;2024-03-23T09:44:41;8.63;;;1.38;;
44824;SDS011;30542;47.928;2.138;2024-03-23T09:49:42;4.93;;;0.95;;
44824;SDS011;30542;47.928;2.138;2024-03-23T09:54:43;8.50;;;1.10;;
44824;SDS011;30542;47.928;2.138;2024-03-23T09:59:44;6.95;;;1.38;;
44824;SDS011;30542;47.928;2.138;2024-03-23T10:04:45;4.80;;;0.90;;
44824;SDS011;30542;47.928;2.138;2024-03-23T10:09:45;6.97;;;1.10;;
44824;SDS011;30542;47.928;2.138;2024-03-23T10:14:46;3.10;;;0.80;;
44824;SDS011;30542;47.928;2.138;2024-03-23T10:19:47;5.23;;;0.90;;
44824;SDS011;30542;47.928;2.138;2024-03-23T10:24:49;5.07;;;0.88;;
44824;SDS011;30542;47.928;2.138;2024-03-23T10:29:49;4.10;;;1.13;;
44824;SDS011;30542;47.928;2.138;2024-03-23T10:34:50;7.30;;;1.40;;
44824;SDS011;30542;47.928;2.138;2024-03-23T10:39:50;8.32;;;1.77;;
44824;SDS011;30542;47.928;2.138;2024-03-23T10:44:51;9.05;;;1.67;;
44824;SDS011;30542;47.928;2.138;2024-03-23T10:49:52;8.70;;;1.20;;
44824;SDS011;30542;47.928;2.138;2024-03-23T10:54:53;6.22;;;1.33;;
44824;SDS011;30542;47.928;2.138;2024-03-23T10:59:56;13.93;;;1.70;;
44824;SDS011;30542;47.928;2.138;2024-03-23T11:04:57;7.85;;;1.42;;
44824;SDS011;30542;47.928;2.138;2024-03-23T11:09:58;16.03;;;3.90;;
44824;SDS011;30542;47.928;2.138;2024-03-23T11:15:05;31.65;;;7.22;;
44824;SDS011;30542;47.928;2.138;2024-03-23T11:20:12;28.02;;;6.63;;
44824;SDS011;30542;47.928;2.138;2024-03-23T11:25:13;14.33;;;4.10;;
44824;SDS011;30542;47.928;2.138;2024-03-23T11:30:27;19.17;;;3.97;;
44824;SDS011;30542;47.928;2.138;2024-03-23T11:35:31;13.32;;;3.83;;
44824;SDS011;30542;47.928;2.138;2024-03-23T11:40:38;20.98;;;5.22;;
44824;SDS011;30542;47.928;2.138;2024-03-23T11:45:46;20.85;;;5.10;;
44824;SDS011;30542;47.928;2.138;2024-03-23T11:50:48;19.13;;;5.15;;
44824;SDS011;30542;47.928;2.138;2024-03-23T11:55:53;16.92;;;4.75;;
44824;SDS011;30542;47.928;2.138;2024-03-23T12:00:58;13.60;;;4.77;;
44824;SDS011;30542;47.928;2.138;2024-03-23T12:06:00;14.85;;;4.22;;
44824;SDS011;30542;47.928;2.138;2024-03-23T12:11:09;13.43;;;4.05;;
44824;SDS011;30542;47.928;2.138;2024-03-23T12:21:12;12.30;;;3.47;;
44824;SDS011;30542;47.928;2.138;2024-03-23T12:26:12;12.25;;;3.58;;
44824;SDS011;30542;47.928;2.138;2024-03-23T12:31:13;11.85;;;3.60;;
44824;SDS011;30542;47.928;2.138;2024-03-23T12:36:13;12.57;;;3.53;;
44824;SDS011;30542;47.928;2.138;2024-03-23T12:41:13;12.07;;;3.95;;
44824;SDS011;30542;47.928;2.138;2024-03-23T12:46:13;12.80;;;3.75;;
44824;SDS011;30542;47.928;2.138;2024-03-23T12:51:14;13.63;;;3.23;;
44824;SDS011;30542;47.928;2.138;2024-03-23T12:56:14;10.77;;;2.90;;
44824;SDS011;30542;47.928;2.138;2024-03-23T13:01:14;11.48;;;2.67;;
44824;SDS011;30542;47.928;2.138;2024-03-23T13:06:15;12.38;;;3.10;;
44824;SDS011;30542;47.928;2.138;2024-03-23T13:11:16;19.33;;;5.15;;
44824;SDS011;30542;47.928;2.138;2024-03-23T13:16:16;12.63;;;3.63;;
44824;SDS011;30542;47.928;2.138;2024-03-23T13:21:17;10.60;;;2.97;;
44824;SDS011;30542;47.928;2.138;2024-03-23T13:26:17;9.25;;;3.28;;
44824;SDS011;30542;47.928;2.138;2024-03-23T13:31:17;9.13;;;2.72;;
44824;SDS011;30542;47.928;2.138;2024-03-23T13:36:17;10.10;;;3.05;;
44824;SDS011;30542;47.928;2.138;2024-03-23T13:41:18;8.40;;;2.80;;
44824;SDS011;30542;47.928;2.138;2024-03-23T13:46:18;11.52;;;2.85;;
44824;SDS011;30542;47.928;2.138;2024-03-23T13:51:22;11.55;;;2.90;;
44824;SDS011;30542;47.928;2.138;2024-03-23T13:56:24;8.40;;;2.53;;
44824;SDS011;30542;47.928;2.138;2024-03-23T14:01:25;10.43;;;2.67;;
44824;SDS011;30542;47.928;2.138;2024-03-23T14:06:25;10.63;;;2.88;;
44824;SDS011;30542;47.928;2.138;2024-03-23T14:11:25;11.65;;;2.80;;
44824;SDS011;30542;47.928;2.138;2024-03-23T14:16:26;11.05;;;2.50;;
44824;SDS011;30542;47.928;2.138;2024-03-23T14:21:27;9.20;;;2.92;;
44824;SDS011;30542;47.928;2.138;2024-03-23T14:26:28;9.52;;;2.47;;
44824;SDS011;30542;47.928;2.138;2024-03-23T14:31:28;7.93;;;2.37;;
44824;SDS011;30542;47.928;2.138;2024-03-23T14:36:28;7.20;;;2.50;;
44824;SDS011;30542;47.928;2.138;2024-03-23T14:41:29;6.83;;;1.87;;
44824;SDS011;30542;47.928;2.138;2024-03-23T14:46:29;5.68;;;1.90;;
44824;SDS011;30542;47.928;2.138;2024-03-23T14:51:29;7.80;;;2.00;;
44824;SDS011;30542;47.928;2.138;2024-03-23T14:56:30;5.80;;;2.10;;
44824;SDS011;30542;47.928;2.138;2024-03-23T15:01:30;8.10;;;2.10;;
44824;SDS011;30542;47.928;2.138;2024-03-23T15:06:30;7.63;;;2.10;;
44824;SDS011;30542;47.928;2.138;2024-03-23T15:11:30;7.97;;;2.63;;
44824;SDS011;30542;47.928;2.138;2024-03-23T15:16:32;9.85;;;2.30;;
44824;SDS011;30542;47.928;2.138;2024-03-23T15:21:33;6.93;;;1.98;;
44824;SDS011;30542;47.928;2.138;2024-03-23T15:26:33;5.90;;;1.63;;
44824;SDS011;30542;47.928;2.138;2024-03-23T15:31:34;8.85;;;2.20;;
44824;SDS011;30542;47.928;2.138;2024-03-23T15:36:34;5.10;;;1.70;;
44824;SDS011;30542;47.928;2.138;2024-03-23T15:41:34;4.10;;;1.35;;
44824;SDS011;30542;47.928;2.138;2024-03-23T15:46:35;7.22;;;1.90;;
44824;SDS011;30542;47.928;2.138;2024-03-23T15:51:36;5.80;;;2.00;;
44824;SDS011;30542;47.928;2.138;2024-03-23T15:56:37;12.02;;;3.83;;
44824;SDS011;30542;47.928;2.138;2024-03-23T16:01:37;20.92;;;5.28;;
44824;SDS011;30542;47.928;2.138;2024-03-23T16:06:38;20.33;;;6.13;;
44824;SDS011;30542;47.928;2.138;2024-03-23T16:11:40;15.75;;;3.78;;
44824;SDS011;30542;47.928;2.138;2024-03-23T16:16:40;17.17;;;4.57;;
44824;SDS011;30542;47.928;2.138;2024-03-23T16:21:41;10.80;;;3.47;;
44824;SDS011;30542;47.928;2.138;2024-03-23T16:26:41;10.37;;;3.17;;
44824;SDS011;30542;47.928;2.138;2024-03-23T16:31:41;10.85;;;2.75;;
44824;SDS011;30542;47.928;2.138;2024-03-23T16:36:42;10.98;;;3.38;;
44824;SDS011;30542;47.928;2.138;2024-03-23T16:41:43;12.35;;;3.30;;
44824;SDS011;30542;47.928;2.138;2024-03-23T16:46:43;9.20;;;2.95;;
44824;SDS011;30542;47.928;2.138;2024-03-23T16:51:44;15.95;;;3.30;;
44824;SDS011;30542;47.928;2.138;2024-03-23T16:56:44;7.82;;;2.13;;
44824;SDS011;30542;47.928;2.138;2024-03-23T17:01:45;8.63;;;2.70;;
44824;SDS011;30542;47.928;2.138;2024-03-23T17:06:45;8.53;;;2.50;;
44824;SDS011;30542;47.928;2.138;2024-03-23T17:11:45;6.32;;;2.30;;
44824;SDS011;30542;47.928;2.138;2024-03-23T17:16:46;8.23;;;1.80;;
44824;SDS011;30542;47.928;2.138;2024-03-23T17:21:46;8.37;;;2.83;;
44824;SDS011;30542;47.928;2.138;2024-03-23T17:26:47;9.15;;;3.13;;
44824;SDS011;30542;47.928;2.138;2024-03-23T17:31:47;7.63;;;2.88;;
44824;SDS011;30542;47.928;2.138;2024-03-23T17:36:47;7.73;;;3.67;;
44824;SDS011;30542;47.928;2.138;2024-03-23T17:41:48;6.20;;;2.92;;
44824;SDS011;30542;47.928;2.138;2024-03-23T17:46:48;8.63;;;3.10;;
44824;SDS011;30542;47.928;2.138;2024-03-23T17:51:48;4.43;;;2.33;;
44824;SDS011;30542;47.928;2.138;2024-03-23T17:56:49;4.57;;;2.40;;
44824;SDS011;30542;47.928;2.138;2024-03-23T18:01:49;5.45;;;1.95;;
44824;SDS011;30542;47.928;2.138;2024-03-23T18:06:49;4.30;;;1.83;;
44824;SDS011;30542;47.928;2.138;2024-03-23T18:11:50;8.65;;;2.00;;
44824;SDS011;30542;47.928;2.138;2024-03-23T18:16:52;6.68;;;2.00;;
44824;SDS011;30542;47.928;2.138;2024-03-23T18:21:53;7.60;;;1.23;;
44824;SDS011;30542;47.928;2.138;2024-03-23T18:26:53;5.07;;;1.43;;
44824;SDS011;30542;47.928;2.138;2024-03-23T18:31:55;7.00;;;1.67;;
44824;SDS011;30542;47.928;2.138;2024-03-23T18:36:55;9.23;;;1.73;;
44824;SDS011;30542;47.928;2.138;2024-03-23T18:41:56;11.60;;;2.10;;
44824;SDS011;30542;47.928;2.138;2024-03-23T18:46:56;7.38;;;1.45;;
44824;SDS011;30542;47.928;2.138;2024-03-23T18:51:56;5.85;;;1.63;;
44824;SDS011;30542;47.928;2.138;2024-03-23T18:56:57;4.03;;;1.17;;
44824;SDS011;30542;47.928;2.138;2024-03-23T19:01:58;4.72;;;1.48;;
44824;SDS011;30542;47.928;2.138;2024-03-23T19:06:58;6.30;;;1.50;;
44824;SDS011;30542;47.928;2.138;2024-03-23T19:11:58;3.53;;;1.27;;
44824;SDS011;30542;47.928;2.138;2024-03-23T19:16:58;3.80;;;1.73;;
44824;SDS011;30542;47.928;2.138;2024-03-23T19:21:59;4.10;;;1.40;;
44824;SDS011;30542;47.928;2.138;2024-03-23T19:26:59;4.03;;;1.92;;
44824;SDS011;30542;47.928;2.138;2024-03-23T19:32:00;2.60;;;1.23;;
44824;SDS011;30542;47.928;2.138;2024-03-23T19:37:00;3.47;;;1.80;;
44824;SDS011;30542;47.928;2.138;2024-03-23T19:42:00;2.92;;;1.70;;
44824;SDS011;30542;47.928;2.138;2024-03-23T19:47:01;2.60;;;1.50;;
44824;SDS011;30542;47.928;2.138;2024-03-23T19:52:02;3.70;;;2.20;;
44824;SDS011;30542;47.928;2.138;2024-03-23T19:57:03;3.83;;;1.67;;
44824;SDS011;30542;47.928;2.138;2024-03-23T20:02:04;3.47;;;1.60;;
44824;SDS011;30542;47.928;2.138;2024-03-23T20:07:04;2.33;;;1.53;;
44824;SDS011;30542;47.928;2.138;2024-03-23T20:12:04;2.85;;;1.50;;
44824;SDS011;30542;47.928;2.138;2024-03-23T20:17:05;3.97;;;1.30;;
44824;SDS011;30542;47.928;2.138;2024-03-23T20:22:05;4.83;;;2.77;;
44824;SDS011;30542;47.928;2.138;2024-03-23T20:27:06;4.77;;;3.20;;
44824;SDS011;30542;47.928;2.138;2024-03-23T20:32:08;4.43;;;2.92;;
44824;SDS011;30542;47.928;2.138;2024-03-23T20:37:08;4.00;;;2.75;;
44824;SDS011;30542;47.928;2.138;2024-03-23T20:42:08;3.90;;;2.87;;
44824;SDS011;30542;47.928;2.138;2024-03-23T20:47:11;4.18;;;2.63;;
44824;SDS011;30542;47.928;2.138;2024-03-23T20:52:11;3.97;;;2.60;;
44824;SDS011;30542;47.928;2.138;2024-03-23T20:57:12;3.37;;;2.43;;
44824;SDS011;30542;47.928;2.138;2024-03-23T21:02:12;5.20;;;2.50;;
44824;SDS011;30542;47.928;2.138;2024-03-23T21:07:12;4.60;;;2.38;;
44824;SDS011;30542;47.928;2.138;2024-03-23T21:12:12;5.45;;;2.30;;
44824;SDS011;30542;47.928;2.138;2024-03-23T21:17:13;3.15;;;1.50;;
44824;SDS011;30542;47.928;2.138;2024-03-23T21:22:13;3.00;;;1.57;;
44824;SDS011;30542;47.928;2.138;2024-03-23T21:27:14;2.90;;;1.75;;
44824;SDS011;30542;47.928;2.138;2024-03-23T21:32:14;2.75;;;1.33;;
44824;SDS011;30542;47.928;2.138;2024-03-23T21:37:15;1.90;;;1.38;;
44824;SDS011;30542;47.928;2.138;2024-03-23T21:42:16;2.72;;;1.50;;
44824;SDS011;30542;47.928;2.138;2024-03-23T21:47:17;1.90;;;1.17;;
44824;SDS011;30542;47.928;2.138;2024-03-23T21:52:18;1.92;;;0.85;;
44824;SDS011;30542;47.928;2.138;2024-03-23T21:57:19;4.43;;;1.45;;
44824;SDS011;30542;47.928;2.138;2024-03-23T22:02:19;3.67;;;1.00;;
44824;SDS011;30542;47.928;2.138;2024-03-23T22:07:20;1.88;;;0.90;;
44824;SDS011;30542;47.928;2.138;2024-03-23T22:12:26;1.88;;;1.00;;
44824;SDS011;30542;47.928;2.138;2024-03-23T22:17:26;3.30;;;0.93;;
44824;SDS011;30542;47.928;2.138;2024-03-23T22:22:26;4.22;;;1.75;;
44824;SDS011;30542;47.928;2.138;2024-03-23T22:27:27;2.63;;;1.10;;
44824;SDS011;30542;47.928;2.138;2024-03-23T22:32:29;5.10;;;1.40;;
44824;SDS011;30542;47.928;2.138;2024-03-23T22:37:29;2.45;;;1.33;;
44824;SDS011;30542;47.928;2.138;2024-03-23T22:42:30;3.90;;;3.10;;
44824;SDS011;30542;47.928;2.138;2024-03-23T22:47:31;8.27;;;5.50;;
44824;SDS011;30542;47.928;2.138;2024-03-23T22:52:31;13.30;;;9.43;;
44824;SDS011;30542;47.928;2.138;2024-03-23T22:57:32;18.17;;;12.47;;
44824;SDS011;30542;47.928;2.138;2024-03-23T23:02:32;15.77;;;11.40;;
44824;SDS011;30542;47.928;2.138;2024-03-23T23:07:32;15.50;;;11.57;;
44824;SDS011;30542;47.928;2.138;2024-03-23T23:12:33;15.40;;;11.48;;
44824;SDS011;30542;47.928;2.138;2024-03-23T23:17:34;14.55;;;10.52;;
44824;SDS011;30542;47.928;2.138;2024-03-23T23:22:34;13.50;;;9.57;;
44824;SDS011;30542;47.928;2.138;2024-03-23T23:27:35;12.05;;;9.07;;
44824;SDS011;30542;47.928;2.138;2024-03-23T23:32:36;12.98;;;7.80;;
44824;SDS011;30542;47.928;2.138;2024-03-23T23:37:36;10.73;;;7.67;;
44824;SDS011;30542;47.928;2.138;2024-03-23T23:42:36;8.60;;;6.75;;
44824;SDS011;30542;47.928;2.138;2024-03-23T23:47:37;8.97;;;6.30;;
44824;SDS011;30542;47.928;2.138;2024-03-23T23:52:38;7.82;;;5.32;;
44824;SDS011;30542;47.928;2.138;2024-03-23T23:57:38;5.65;;;4.03;;
